Soleil Weather Down

Nearby METAR Reports

 

KCNI - Canton/Cherokee, Georgia, USA
Distance from station: ENE 6mi, 10km
Updated: Fri, 25-Sep-2020 7:50am EDT
Rain, Overcast
Rain, Overcast
 Wind from ENE
Wind: ENE 5 mph , 7 km/h
Temperature: 63°F , 17°C
Dew Point: 63°F , 17°C
Humidity: 100%
Barometer: 29.99 inHg , 1015.6 hPa
Summary: Rain
Clouds: Overcast
Visibility: 4 miles , 6 km
Cloud details: Overcast 400 ft
2020/09/25 11:50 KCNI 251150Z AUTO 07004KT 4SM RA OVC004 17/17 A2999 RMK AO2
KRYY - Marietta Mccolum, Georgia, USA
Distance from station: SSW 18mi, 29km
Updated: Fri, 25-Sep-2020 8:01am EDT
Light rain, Mist, Overcast
Light rain, Mist, Overcast
 Wind from calm
Wind: Calm
Temperature: 66°F , 19°C
Dew Point: 66°F , 19°C
Humidity: 100%
Barometer: 29.96 inHg , 1014.6 hPa
Summary: Light rain, Mist
Clouds: Overcast
Visibility: 5 miles , 8 km
Cloud details: Overcast 900 ft
2020/09/25 12:01 KRYY 251201Z 00000KT 5SM -RA BR OVC009 19/19 A2996 RMK AO2 RAB01 P0002 $
KVPC - Cartersville, Georgia, USA
Distance from station: WSW 22mi, 35km
Updated: Fri, 25-Sep-2020 8:03am EDT
Overcast
Overcast
 Wind from E
Wind: E 3 mph , 6 km/h
Temperature: 68°F , 20°C
Dew Point: 66°F , 19°C
Humidity: 94%
Barometer: 29.95 inHg , 1014.2 hPa
Clouds: Overcast
Visibility: 10 miles , 16 km
Cloud details: Mostly cloudy 2000 ft
Overcast 4500 ft
2020/09/25 12:03 KVPC 251203Z AUTO 10003KT 10SM BKN020 OVC045 20/19 A2995 RMK AO2 T02000189
 
KMGE - Dobbins Afb/Mari, Georgia, USA
Distance from station: S 24mi, 39km
Updated: Fri, 25-Sep-2020 8:04am EDT
Light drizzle, Mist, Overcast
Light drizzle, Mist, Overcast
 Wind from S
Wind: S 3 mph , 6 km/h
Temperature: 68°F , 20°C
Dew Point: 68°F , 20°C
Humidity: 100%
Barometer: 29.96 inHg , 1014.6 hPa
Summary: Light drizzle, Mist
Clouds: Overcast
Visibility: 3 miles , 5 km
Cloud details: Overcast 700 ft
2020/09/25 12:04 KMGE 251204Z 19003KT 3SM -DZ BR OVC007 20/20 A2996 RMK AO2A $
KPDK - Peachtree/Dekalb, Georgia, USA
Distance from station: SSE 29mi, 47km
Updated: Fri, 25-Sep-2020 8:00am EDT
Overcast
Overcast
 Wind from calm
Wind: Calm
Temperature: 70°F , 21°C
Dew Point: 68°F , 20°C
Humidity: 94%
Barometer: 29.96 inHg , 1014.6 hPa
Clouds: Overcast
Visibility: 9 miles , 14 km
Cloud details: Overcast 500 ft
2020/09/25 12:00 KPDK 251200Z 00000KT 9SM OVC005 21/20 A2996 RMK AO2 CIG 004V007 T02060200
KFTY - Atlanta/Fulton, Georgia, USA
Distance from station: S 34mi, 54km
Updated: Fri, 25-Sep-2020 8:22am EDT
Overcast
Overcast
 Wind from SW
Wind: SW 3 mph , 6 km/h
Temperature: 70°F , 21°C
Dew Point: 66°F , 19°C
Humidity: 88%
Barometer: 29.96 inHg , 1014.6 hPa
Clouds: Overcast
Visibility: 10 miles , 16 km
Cloud details: Overcast 1100 ft
2020/09/25 12:22 KFTY 251222Z 22003KT 10SM OVC011 21/19 A2996 RMK AO2 T02110194
 
KPUJ - Atlanta/Paulding, Georgia, USA
Distance from station: SW 34mi, 55km
Updated: Fri, 25-Sep-2020 8:15am EDT
Overcast
Overcast
 Wind from calm
Wind: Calm
Temperature: 66°F , 19°C
Dew Point: 66°F , 19°C
Humidity: 100%
Barometer: 29.96 inHg , 1014.6 hPa
Clouds: Overcast
Visibility: 7 miles , 11 km
Cloud details: Mostly cloudy 600 ft
Mostly cloudy 1300 ft
Overcast 3100 ft
2020/09/25 12:15 KPUJ 251215Z AUTO 00000KT 7SM BKN006 BKN013 OVC031 19/19 A2996 RMK AO2
KDNN - Dalton, Georgia, USA
Distance from station: NW 37mi, 59km
Updated: Fri, 25-Sep-2020 8:15am EDT
Light snow, Overcast
Light snow, Overcast
 Wind from calm
Wind: Calm
Temperature: 68°F , 20°C
Dew Point: 64°F , 18°C
Humidity: 88%
Barometer: 29.96 inHg , 1014.6 hPa
Summary: Light Snow
Clouds: Overcast
Visibility: 2 1/2 miles , 4 km
Cloud details: Overcast 1500 ft
2020/09/25 12:15 KDNN 251215Z AUTO 00000KT 2 1/2SM -SN OVC015 20/18 A2996 RMK AO2 VIS 1V4
KLZU - Lawrenceville, Georgia, USA
Distance from station: ESE 37mi, 59km
Updated: Fri, 25-Sep-2020 8:16am EDT
Mist, Overcast
Mist, Overcast
 Wind from ESE
Wind: ESE 6 mph , 9 km/h
Temperature: 68°F , 20°C
Dew Point: 68°F , 20°C
Humidity: 100%
Barometer: 29.97 inHg , 1014.9 hPa
Summary: Mist
Clouds: Overcast
Visibility: 3 miles , 5 km
Cloud details: Mostly cloudy 300 ft
Overcast 700 ft
2020/09/25 12:16 KLZU 251216Z 12005KT 3SM BR BKN003 OVC007 20/20 A2997 RMK AO2 CIG 001V005
 
KRMG - Rome, Georgia, USA
Distance from station: W 38mi, 61km
Updated: Fri, 25-Sep-2020 7:53am EDT
Overcast
Overcast
 Wind from calm
Wind: Calm
Temperature: 66°F , 19°C
Dew Point: 64°F , 18°C
Humidity: 94%
Barometer: 29.92 inHg , 1013.2 hPa
Clouds: Overcast
Visibility: 10 miles , 16 km
Cloud details: Few Clouds 400 ft
Mostly cloudy 1500 ft
Overcast 2500 ft
2020/09/25 11:53 KRMG 251153Z AUTO 00000KT 10SM FEW004 BKN015 OVC025 19/18 A2992 RMK AO2 SLP126 P0001 60001 70203 T01940178 10194 20183 53016
KGVL - Gainesville, Georgia, USA
Distance from station: E 39mi, 62km
Updated: Fri, 25-Sep-2020 8:21am EDT
Mist, Overcast
Mist, Overcast
 Wind from E
Wind: E 9 mph , 15 km/h
Temperature: 61°F , 16°C
Dew Point: 61°F , 16°C
Humidity: 100%
Barometer: 30.00 inHg , 1015.9 hPa
Summary: Mist
Clouds: Overcast
Visibility: 2 miles , 3 km
Cloud details: Overcast 200 ft
2020/09/25 12:21 KGVL 251221Z AUTO 09008KT 2SM BR OVC002 16/16 A3000 RMK AO2 T01610156
KATL - Atlanta, Georgia, USA
Distance from station: S 44mi, 71km
Updated: Fri, 25-Sep-2020 7:52am EDT
Mostly cloudy
Mostly cloudy
 Wind from calm
Wind: Calm
Temperature: 70°F , 21°C
Dew Point: 68°F , 20°C
Humidity: 94%
Barometer: 29.95 inHg , 1014.2 hPa
Clouds: Mostly cloudy
Visibility: 7 miles , 11 km
Cloud details: Partly cloudy 700 ft
Mostly cloudy 1200 ft
Mostly cloudy 4000 ft
2020/09/25 11:52 KATL 251152Z 00000KT 7SM SCT007 BKN012 BKN040 21/20 A2995 RMK AO2 DZE03 SLP137 P0000 60001 70099 T02110200 10217 20211 53014